createdAt,value
2019-05-09T00:02:55.889Z,96588.32
2019-05-09T00:05:25.522Z,96589.70
2019-05-09T00:08:03.475Z,96593.37
2019-05-09T00:10:50.264Z,96584.77
2019-05-09T00:13:19.600Z,96580.30
2019-05-09T00:15:48.920Z,96577.34
2019-05-09T00:18:18.236Z,96578.70
2019-05-09T00:23:43.691Z,96571.14
2019-05-09T00:26:19.360Z,96573.88
2019-05-09T00:29:27.385Z,96577.19
2019-05-09T00:34:56.896Z,96582.31
2019-05-09T00:37:45.349Z,96577.55
2019-05-09T00:40:14.669Z,96572.55
2019-05-09T00:42:44.221Z,96574.03
2019-05-09T00:45:33.403Z,96577.63
2019-05-09T00:48:03.515Z,96573.05
2019-05-09T00:50:54.426Z,96572.89
2019-05-09T00:53:29.931Z,96568.88
2019-05-09T00:55:59.264Z,96573.60
2019-05-09T00:58:28.587Z,96551.76
2019-05-09T01:00:57.915Z,96565.77
2019-05-09T01:03:27.256Z,96571.84
2019-05-09T01:05:56.573Z,96571.42
2019-05-09T01:08:25.976Z,96570.05
2019-05-09T01:11:15.568Z,96571.66
2019-05-09T01:13:51.202Z,96566.61
2019-05-09T01:16:20.525Z,96561.05
2019-05-09T01:18:49.851Z,96562.16
2019-05-09T01:21:19.186Z,96559.41
2019-05-09T01:23:48.531Z,96558.78
2019-05-09T01:26:17.862Z,96558.51
2019-05-09T01:28:47.190Z,96563.63
2019-05-09T01:31:16.543Z,96555.73
2019-05-09T01:37:00.205Z,96555.61
2019-05-09T01:39:29.598Z,96558.39
2019-05-09T01:41:59.006Z,96563.00
2019-05-09T01:44:49.109Z,96561.55
2019-05-09T01:47:18.455Z,96562.28
2019-05-09T01:49:47.778Z,96557.49
2019-05-09T01:52:17.099Z,96560.51
2019-05-09T01:57:29.540Z,96557.44
2019-05-09T01:59:58.874Z,96560.95
2019-05-09T02:02:28.291Z,96556.70
2019-05-09T02:04:57.617Z,96549.11
2019-05-09T02:07:26.938Z,96548.11
2019-05-09T02:09:56.266Z,96555.89
2019-05-09T02:12:25.599Z,96556.91
2019-05-09T02:20:33.219Z,96558.00
2019-05-09T02:23:23.289Z,96562.69
2019-05-09T02:28:59.609Z,96560.66
2019-05-09T02:34:10.425Z,96560.38
2019-05-09T02:36:39.750Z,96553.04
2019-05-09T02:39:09.358Z,96543.25
2019-05-09T02:42:00.970Z,96540.66
2019-05-09T02:44:22.316Z,96536.07
2019-05-09T02:47:10.773Z,96544.09
2019-05-09T02:49:40.093Z,96543.09
2019-05-09T02:52:09.418Z,96537.94
2019-05-09T02:54:39.423Z,96540.50
2019-05-09T02:57:18.216Z,96540.51
2019-05-09T03:00:11.130Z,96540.20
2019-05-09T03:02:59.866Z,96535.72
2019-05-09T03:05:29.855Z,96531.74
2019-05-09T03:08:09.899Z,96529.31
2019-05-09T03:10:50.212Z,96534.25
2019-05-09T03:13:19.537Z,96534.75
2019-05-09T03:18:28.936Z,96539.33
2019-05-09T03:24:19.342Z,96541.27
2019-05-09T03:30:03.869Z,96536.22
2019-05-09T03:32:33.188Z,96542.95
2019-05-09T03:35:02.497Z,96535.88
2019-05-09T03:37:32.124Z,96535.06
2019-05-09T03:40:01.447Z,96540.80
2019-05-09T03:42:41.145Z,96527.98
2019-05-09T03:45:20.893Z,96527.53
2019-05-09T03:50:45.809Z,96528.34
2019-05-09T03:53:15.135Z,96521.82
2019-05-09T03:55:44.470Z,96528.80
2019-05-09T04:01:10.837Z,96530.38
2019-05-09T04:03:47.985Z,96533.48
2019-05-09T04:06:22.790Z,96517.25
2019-05-09T04:08:54.020Z,96510.13
2019-05-09T04:11:42.353Z,96509.22
2019-05-09T04:14:30.796Z,96511.40
2019-05-09T04:17:00.206Z,96514.56
2019-05-09T04:19:29.531Z,96523.66
2019-05-09T04:22:02.109Z,96521.22
2019-05-09T04:30:24.918Z,96516.95
2019-05-09T04:32:54.241Z,96518.33
2019-05-09T04:35:23.583Z,96509.77
2019-05-09T04:37:52.968Z,96507.70
2019-05-09T04:40:22.291Z,96511.55
2019-05-09T04:42:51.622Z,96511.09
2019-05-09T04:45:41.869Z,96519.89
2019-05-09T04:48:37.621Z,96516.23
2019-05-09T04:51:11.819Z,96518.61
2019-05-09T04:53:41.159Z,96513.77
2019-05-09T04:56:29.594Z,96506.97
2019-05-09T04:59:12.570Z,96503.83
2019-05-09T05:02:01.020Z,96494.87
2019-05-09T05:04:30.346Z,96495.27
2019-05-09T05:06:59.975Z,96496.67
2019-05-09T05:09:34.820Z,96493.89
2019-05-09T05:12:04.169Z,96494.75
2019-05-09T05:14:33.480Z,96496.55
2019-05-09T05:17:08.505Z,96493.98
2019-05-09T05:25:58.098Z,96498.12
2019-05-09T05:28:27.903Z,96488.11
2019-05-09T05:31:03.677Z,96495.20
2019-05-09T05:36:42.176Z,96489.85
2019-05-09T05:39:11.503Z,96498.25
2019-05-09T05:41:41.763Z,96485.20
2019-05-09T05:44:11.092Z,96484.47
2019-05-09T05:46:58.576Z,96492.01
2019-05-09T05:49:28.088Z,96487.21
2019-05-09T05:51:57.719Z,96490.63
2019-05-09T05:54:27.657Z,96491.73
2019-05-09T05:56:57.877Z,96489.47
2019-05-09T05:59:28.557Z,96485.28
2019-05-09T06:01:58.589Z,96486.14
2019-05-09T06:04:28.248Z,96486.60
2019-05-09T06:06:58.864Z,96482.89
2019-05-09T06:09:28.284Z,96484.18
2019-05-09T06:11:57.929Z,96482.58
2019-05-09T06:14:28.550Z,96480.31
2019-05-09T06:16:58.750Z,96477.72
2019-05-09T06:19:28.772Z,96476.00
2019-05-09T06:21:58.203Z,96475.19
2019-05-09T06:24:28.192Z,96475.41
2019-05-09T06:26:58.573Z,96478.48
2019-05-09T06:29:28.802Z,96482.78
2019-05-09T06:31:58.596Z,96483.59
2019-05-09T06:34:27.980Z,96478.86
2019-05-09T06:36:58.595Z,96480.59
2019-05-09T06:39:28.581Z,96482.43
2019-05-09T06:41:57.930Z,96486.63
2019-05-09T06:44:34.658Z,96480.59
2019-05-09T06:47:14.779Z,96483.95
2019-05-09T06:49:49.813Z,96484.80
2019-05-09T06:52:17.539Z,96476.61
2019-05-09T06:54:48.569Z,96488.89
2019-05-09T06:57:18.759Z,96474.91
2019-05-09T06:59:48.893Z,96471.30
2019-05-09T07:02:19.890Z,96475.32
2019-05-09T07:04:50.874Z,96476.44
2019-05-09T07:07:24.526Z,96470.48
2019-05-09T07:09:55.483Z,96470.69
2019-05-09T07:12:27.298Z,96472.39
2019-05-09T07:14:58.158Z,96476.48
2019-05-09T07:17:31.855Z,96465.55
2019-05-09T07:19:59.221Z,96468.14
2019-05-09T07:22:48.283Z,96471.02
2019-05-09T07:25:19.232Z,96456.34
2019-05-09T07:27:49.482Z,96456.22
2019-05-09T07:30:33.126Z,96449.97
2019-05-09T07:33:09.909Z,96450.39
2019-05-09T07:35:39.232Z,96449.92
2019-05-09T07:38:08.747Z,96453.04
2019-05-09T07:40:38.603Z,96446.12
2019-05-09T07:43:08.066Z,96446.12
2019-05-09T07:45:38.439Z,96444.39
2019-05-09T07:48:07.920Z,96437.05
2019-05-09T07:50:38.895Z,96436.05
2019-05-09T07:53:09.039Z,96438.22
2019-05-09T07:55:38.499Z,96439.05
2019-05-09T07:58:08.273Z,96430.10
2019-05-09T08:00:38.484Z,96425.15
2019-05-09T08:03:12.616Z,96431.73
2019-05-09T08:05:39.201Z,96431.83
2019-05-09T08:08:11.504Z,96436.88
2019-05-09T08:10:40.889Z,96441.87
2019-05-09T08:13:11.981Z,96448.59
2019-05-09T08:15:41.541Z,96448.79
2019-05-09T08:18:11.147Z,96458.69
2019-05-09T08:20:40.897Z,96464.05
2019-05-09T08:23:10.251Z,96462.47
2019-05-09T08:25:39.578Z,96460.55
2019-05-09T08:28:09.308Z,96471.07
2019-05-09T08:30:40.272Z,96476.25
2019-05-09T08:33:10.226Z,96476.84
2019-05-09T08:35:39.495Z,96486.63
2019-05-09T08:38:09.088Z,96478.53
2019-05-09T08:40:38.720Z,96477.52
2019-05-09T08:43:07.993Z,96470.95
2019-05-09T08:45:38.297Z,96471.00
2019-05-09T08:48:09.510Z,96478.48
2019-05-09T08:50:43.539Z,96485.66
2019-05-09T08:53:12.879Z,96483.88
2019-05-09T08:55:42.206Z,96483.78
2019-05-09T08:58:11.542Z,96478.40
2019-05-09T09:00:41.139Z,96482.14
2019-05-09T09:03:10.473Z,96486.30
2019-05-09T09:05:43.147Z,96492.83
2019-05-09T09:08:10.844Z,96494.50
2019-05-09T09:10:40.166Z,96506.03
2019-05-09T09:13:09.508Z,96501.97
2019-05-09T09:18:09.887Z,96492.94
2019-05-09T09:20:39.290Z,96491.76
2019-05-09T09:23:09.211Z,96480.39
2019-05-09T09:25:39.338Z,96477.66
2019-05-09T09:28:09.272Z,96476.70
2019-05-09T09:30:39.168Z,96468.95
2019-05-09T09:33:11.542Z,96461.94
2019-05-09T09:35:39.725Z,96458.84
2019-05-09T09:38:09.585Z,96458.74
2019-05-09T09:40:38.958Z,96456.65
2019-05-09T09:43:09.409Z,96456.16
2019-05-09T09:45:38.874Z,96456.44
2019-05-09T09:48:09.235Z,96452.73
2019-05-09T09:50:38.727Z,96445.80
2019-05-09T09:53:09.035Z,96442.70
2019-05-09T09:55:38.838Z,96436.38
2019-05-09T09:58:08.479Z,96426.48
2019-05-09T10:00:58.547Z,96423.02
2019-05-09T10:03:28.158Z,96415.23
2019-05-09T10:05:57.849Z,96415.23
2019-05-09T10:08:27.354Z,96413.67
2019-05-09T10:10:58.944Z,96405.80
2019-05-09T10:13:28.589Z,96405.80
2019-05-09T10:16:09.709Z,96383.15
2019-05-09T10:18:50.851Z,96383.15
2019-05-09T10:21:27.777Z,96404.86
2019-05-09T10:23:57.625Z,96377.73
2019-05-09T10:26:28.389Z,96377.73
2019-05-09T10:28:57.848Z,96406.19
2019-05-09T10:31:28.213Z,96406.19
2019-05-09T10:33:58.104Z,96390.22
2019-05-09T10:36:27.985Z,96387.44
2019-05-09T10:38:58.497Z,96387.44
2019-05-09T10:41:28.672Z,96373.91
2019-05-09T10:44:00.578Z,96369.18
2019-05-09T10:46:52.812Z,96355.28
2019-05-09T10:49:11.805Z,96377.50
2019-05-09T10:51:41.129Z,96364.77
2019-05-09T10:54:10.463Z,96364.77
2019-05-09T10:56:41.333Z,96352.86
2019-05-09T10:59:10.721Z,96352.86
2019-05-09T11:01:40.062Z,96375.11
2019-05-09T11:04:10.069Z,96360.81
2019-05-09T11:06:39.377Z,96364.17
2019-05-09T11:09:09.922Z,96350.99
2019-05-09T11:11:39.362Z,96349.36
2019-05-09T11:14:08.939Z,96367.72
2019-05-09T11:16:45.737Z,96366.16
2019-05-09T11:19:09.375Z,96370.36
2019-05-09T11:21:39.316Z,96382.48
2019-05-09T11:24:09.587Z,96369.58
2019-05-09T11:26:39.953Z,96373.91
2019-05-09T11:29:09.427Z,96375.44
2019-05-09T11:31:38.763Z,96383.23
2019-05-09T11:34:09.048Z,96368.41
2019-05-09T11:36:38.824Z,96386.21
2019-05-09T11:39:10.588Z,96397.97
2019-05-09T11:41:39.685Z,96400.27
2019-05-09T11:44:09.044Z,96390.98
2019-05-09T11:46:38.526Z,96403.89
2019-05-09T11:49:08.571Z,96410.05
2019-05-09T11:51:38.092Z,96410.05
2019-05-09T11:54:09.157Z,96401.94
2019-05-09T11:56:38.626Z,96412.71
2019-05-09T11:59:08.120Z,96412.56
2019-05-09T12:01:39.676Z,96406.25
2019-05-09T12:04:09.317Z,96413.72
2019-05-09T12:06:38.648Z,96409.75
2019-05-09T12:09:09.145Z,96420.41
2019-05-09T12:11:43.490Z,96413.77
2019-05-09T12:14:09.816Z,96419.69
2019-05-09T12:16:39.142Z,96395.67
2019-05-09T12:19:08.468Z,96408.77
2019-05-09T12:21:44.977Z,96414.27
2019-05-09T12:24:09.255Z,96406.58
2019-05-09T12:26:39.194Z,96412.43
2019-05-09T12:29:08.918Z,96413.98
2019-05-09T12:31:38.843Z,96401.27
2019-05-09T12:34:09.359Z,96409.86
2019-05-09T12:36:39.852Z,96406.88
2019-05-09T12:39:09.454Z,96399.20
2019-05-09T12:41:38.802Z,96399.20
2019-05-09T12:44:08.817Z,96398.95
2019-05-09T12:46:39.294Z,96398.95
2019-05-09T12:49:09.497Z,96395.77
2019-05-09T12:51:38.827Z,96396.34
2019-05-09T12:54:08.751Z,96397.39
2019-05-09T12:56:38.615Z,96399.67
2019-05-09T12:59:08.746Z,96404.95
2019-05-09T13:01:40.554Z,96410.78
2019-05-09T13:04:09.804Z,96410.78
2019-05-09T13:06:39.274Z,96396.53
2019-05-09T13:09:08.681Z,96401.70
2019-05-09T13:11:39.128Z,96401.70
2019-05-09T13:14:09.978Z,96419.77
2019-05-09T13:16:49.238Z,96430.84
2019-05-09T13:19:13.977Z,96428.11
2019-05-09T13:21:43.312Z,96428.11
2019-05-09T13:24:12.663Z,96418.91
2019-05-09T13:26:43.645Z,96434.19
2019-05-09T13:29:12.959Z,96434.19
2019-05-09T13:31:42.294Z,96437.36
2019-05-09T13:34:11.622Z,96439.17
2019-05-09T13:36:40.947Z,96433.54
2019-05-09T13:39:10.794Z,96433.54
2019-05-09T13:41:40.286Z,96451.77
2019-05-09T13:44:13.614Z,96452.30
2019-05-09T13:46:40.653Z,96452.30
2019-05-09T13:49:14.750Z,96454.28
2019-05-09T13:51:49.447Z,96458.44
2019-05-09T13:54:12.145Z,96458.44
2019-05-09T13:56:41.478Z,96445.80
2019-05-09T13:59:10.871Z,96445.80
2019-05-09T14:01:40.211Z,96462.05
2019-05-09T14:04:09.535Z,96462.05
2019-05-09T14:06:39.136Z,96458.99
2019-05-09T14:09:10.479Z,96464.78
2019-05-09T14:11:40.126Z,96468.83
2019-05-09T14:14:09.443Z,96465.45
2019-05-09T14:16:39.222Z,96452.44
2019-05-09T14:19:30.096Z,96452.44
2019-05-09T14:21:39.742Z,96466.42
2019-05-09T14:24:14.850Z,96467.06
2019-05-09T14:26:40.109Z,96467.06
2019-05-09T14:29:12.911Z,96459.70
2019-05-09T14:31:40.458Z,96467.46
2019-05-09T14:34:10.183Z,96472.05
2019-05-09T14:36:44.987Z,96477.31
2019-05-09T14:39:10.433Z,96477.31
2019-05-09T14:41:39.804Z,96479.97
2019-05-09T14:44:09.583Z,96484.77
2019-05-09T14:46:39.364Z,96487.16
2019-05-09T14:49:08.813Z,96486.38
2019-05-09T14:51:38.394Z,96486.38
2019-05-09T14:54:08.517Z,96490.34
2019-05-09T14:56:41.680Z,96500.66
2019-05-09T14:59:09.980Z,96505.22
2019-05-09T15:01:43.698Z,96516.03
2019-05-09T15:04:10.645Z,96504.67
2019-05-09T15:06:39.984Z,96506.12
2019-05-09T15:09:09.478Z,96529.46
2019-05-09T15:11:39.700Z,96529.46
2019-05-09T15:14:09.231Z,96517.52
2019-05-09T15:16:39.379Z,96524.82
2019-05-09T15:19:08.935Z,96541.28
2019-05-09T15:21:38.562Z,96541.28
2019-05-09T15:24:09.134Z,96545.80
2019-05-09T15:26:38.800Z,96542.50
2019-05-09T15:29:08.411Z,96549.30
2019-05-09T15:31:39.203Z,96547.35
2019-05-09T15:34:10.252Z,96549.70
2019-05-09T15:36:39.680Z,96554.13
2019-05-09T15:39:09.018Z,96554.13
2019-05-09T15:41:38.669Z,96557.69
2019-05-09T15:44:08.627Z,96563.86
2019-05-09T15:46:39.699Z,96562.91
2019-05-09T15:49:09.025Z,96562.91
2019-05-09T15:51:38.655Z,96550.98
2019-05-09T15:54:08.420Z,96570.56
2019-05-09T15:56:38.472Z,96564.23
2019-05-09T15:59:07.877Z,96564.23
2019-05-09T16:01:38.530Z,96564.17
2019-05-09T16:04:08.604Z,96571.43
2019-05-09T16:06:39.181Z,96568.48
2019-05-09T16:09:11.882Z,96568.48
2019-05-09T16:11:39.735Z,96589.97
2019-05-09T16:14:09.080Z,96578.53
2019-05-09T16:16:38.695Z,96578.53
2019-05-09T16:19:08.961Z,96597.38
2019-05-09T16:21:38.463Z,96606.05
2019-05-09T16:24:08.265Z,96606.05
2019-05-09T16:26:38.572Z,96616.41
2019-05-09T16:29:08.635Z,96605.59
2019-05-09T16:31:38.943Z,96618.73
2019-05-09T16:34:09.583Z,96620.30
2019-05-09T16:36:39.207Z,96620.30
2019-05-09T16:39:08.718Z,96623.66
2019-05-09T16:41:39.243Z,96623.66
2019-05-09T16:44:09.087Z,96617.44
2019-05-09T16:46:38.433Z,96624.94
2019-05-09T16:49:11.734Z,96624.94
2019-05-09T16:51:40.570Z,96629.48
2019-05-09T16:54:10.043Z,96629.48
2019-05-09T16:56:39.387Z,96641.46
2019-05-09T16:59:08.785Z,96651.86
2019-05-09T17:01:39.962Z,96651.86
2019-05-09T17:04:09.419Z,96665.48
2019-05-09T17:06:38.751Z,96665.48
2019-05-09T17:09:11.495Z,96660.70
2019-05-09T17:11:41.563Z,96672.28
2019-05-09T17:14:11.144Z,96674.98
2019-05-09T17:16:40.466Z,96679.09
2019-05-09T17:19:09.970Z,96679.45
2019-05-09T17:21:40.947Z,96688.81
2019-05-09T17:24:11.926Z,96684.41
2019-05-09T17:26:41.256Z,96692.93
2019-05-09T17:29:10.594Z,96691.28
2019-05-09T17:31:42.242Z,96699.60
2019-05-09T17:34:11.569Z,96700.66
2019-05-09T17:36:40.917Z,96707.34
2019-05-09T17:39:10.237Z,96717.13
2019-05-09T17:41:39.554Z,96723.66
2019-05-09T17:44:08.894Z,96696.55
2019-05-09T17:46:50.076Z,96729.98
2019-05-09T17:49:19.437Z,96729.98
2019-05-09T17:51:48.752Z,96735.57
2019-05-09T17:54:18.382Z,96738.09
2019-05-09T17:56:54.323Z,96743.84
2019-05-09T17:59:23.641Z,96745.59
2019-05-09T18:01:52.972Z,96753.81
2019-05-09T18:04:22.310Z,96760.73
2019-05-09T18:06:51.640Z,96760.88
2019-05-09T18:09:20.991Z,96764.18
2019-05-09T18:11:50.315Z,96764.18
2019-05-09T18:14:19.643Z,96753.58
2019-05-09T18:16:48.973Z,96760.02
2019-05-09T18:19:18.466Z,96778.48
2019-05-09T18:21:51.002Z,96778.48
2019-05-09T18:24:18.834Z,96785.77
2019-05-09T18:26:48.160Z,96788.89
2019-05-09T18:29:18.095Z,96788.83
2019-05-09T18:31:49.482Z,96783.51
2019-05-09T18:34:18.804Z,96785.70
2019-05-09T18:36:48.492Z,96793.50
2019-05-09T18:39:19.585Z,96806.72
2019-05-09T18:41:48.986Z,96808.81
2019-05-09T18:44:18.392Z,96818.66
2019-05-09T18:46:48.201Z,96818.66
2019-05-09T18:49:17.827Z,96822.94
2019-05-09T18:52:02.426Z,96831.23
2019-05-09T18:54:18.894Z,96830.16
2019-05-09T18:56:48.239Z,96828.97
2019-05-09T18:59:17.570Z,96837.64
2019-05-09T19:01:47.109Z,96837.77
2019-05-09T19:04:16.468Z,96841.78
2019-05-09T19:06:45.787Z,96840.34
2019-05-09T19:09:15.126Z,96845.78
2019-05-09T19:11:44.570Z,96849.80
2019-05-09T19:14:15.686Z,96846.66
2019-05-09T19:16:46.648Z,96847.11
2019-05-09T19:19:17.614Z,96852.70
2019-05-09T19:21:54.713Z,96857.73
2019-05-09T19:24:24.038Z,96862.13
2019-05-09T19:26:53.367Z,96870.42
2019-05-09T19:29:23.452Z,96877.65
2019-05-09T19:31:52.789Z,96878.44
2019-05-09T19:34:22.122Z,96881.78
2019-05-09T19:36:51.451Z,96884.59
2019-05-09T19:39:22.395Z,96888.09
2019-05-09T19:41:51.719Z,96894.42
2019-05-09T19:44:21.064Z,96896.23
2019-05-09T19:46:50.469Z,96905.53
2019-05-09T19:49:19.877Z,96913.74
2019-05-09T19:51:49.221Z,96915.83
2019-05-09T19:54:18.773Z,96915.13
2019-05-09T19:56:48.108Z,96920.08
2019-05-09T19:59:17.431Z,96922.89
2019-05-09T20:01:46.694Z,96919.32
2019-05-09T20:04:16.102Z,96918.22
2019-05-09T20:06:45.434Z,96923.67
2019-05-09T20:09:18.816Z,96932.20
2019-05-09T20:11:52.480Z,96936.39
2019-05-09T20:14:29.249Z,96936.02
2019-05-09T20:16:58.575Z,96937.07
2019-05-09T20:19:27.967Z,96936.18
2019-05-09T20:21:57.491Z,96939.47
2019-05-09T20:24:27.108Z,96937.69
2019-05-09T20:26:56.454Z,96944.66
2019-05-09T20:29:25.785Z,96947.84
2019-05-09T20:31:55.110Z,96947.84
2019-05-09T20:34:24.573Z,96952.87
2019-05-09T20:36:53.964Z,96956.41
2019-05-09T20:39:23.569Z,96957.88
2019-05-09T20:41:53.123Z,96959.83
2019-05-09T20:44:22.639Z,96964.70
2019-05-09T20:46:52.156Z,96963.97
2019-05-09T20:49:21.669Z,96964.42
2019-05-09T20:51:51.186Z,96954.95
2019-05-09T20:54:21.633Z,96964.05
2019-05-09T20:56:53.195Z,96973.28
2019-05-09T20:59:22.765Z,96969.91
2019-05-09T21:01:52.510Z,96978.27
2019-05-09T21:04:22.013Z,96982.66
2019-05-09T21:06:51.522Z,96999.27
2019-05-09T21:09:21.347Z,96997.17
2019-05-09T21:11:50.864Z,96996.42
2019-05-09T21:14:20.388Z,96994.72
2019-05-09T21:16:49.899Z,97005.05
2019-05-09T21:19:19.415Z,97003.17
2019-05-09T21:21:48.935Z,97005.73
2019-05-09T21:24:18.708Z,97008.25
2019-05-09T21:26:48.158Z,97009.82
2019-05-09T21:29:17.677Z,97010.96
2019-05-09T21:31:47.204Z,97013.97
2019-05-09T21:34:16.721Z,97024.48
2019-05-09T21:36:46.317Z,97022.97
2019-05-09T21:39:15.658Z,97025.59
2019-05-09T21:41:44.967Z,97027.59
2019-05-09T21:44:14.307Z,97034.80
2019-05-09T21:46:43.638Z,97040.17
2019-05-09T21:49:13.206Z,97040.92
2019-05-09T21:51:42.540Z,97045.88
2019-05-09T21:54:11.861Z,97047.64
2019-05-09T21:56:41.199Z,97040.41
2019-05-09T21:59:10.618Z,97046.95
2019-05-09T22:01:40.856Z,97042.98
2019-05-09T22:04:10.482Z,97050.28
2019-05-09T22:06:39.861Z,97052.37
2019-05-09T22:09:10.026Z,97062.05
2019-05-09T22:11:39.357Z,97068.13
2019-05-09T22:14:08.747Z,97063.89
2019-05-09T22:16:38.093Z,97076.78
2019-05-09T22:19:07.422Z,97081.84
2019-05-09T22:21:36.778Z,97083.94
2019-05-09T22:24:06.166Z,97082.21
2019-05-09T22:26:35.633Z,97084.50
2019-05-09T22:29:05.018Z,97084.36
2019-05-09T22:31:34.342Z,97083.44
2019-05-09T22:34:03.798Z,97085.64
2019-05-09T22:36:33.130Z,97087.94
2019-05-09T22:39:02.539Z,97092.17
2019-05-09T22:41:31.878Z,97097.48
2019-05-09T22:44:01.209Z,97092.58
2019-05-09T22:46:30.538Z,97099.94
2019-05-09T22:48:59.870Z,97094.73
2019-05-09T22:51:29.516Z,97091.66
2019-05-09T22:54:11.595Z,97092.54
2019-05-09T22:56:29.885Z,97090.95
2019-05-09T22:58:59.213Z,97092.64
2019-05-09T23:01:28.546Z,97094.81
2019-05-09T23:03:57.891Z,97094.09
2019-05-09T23:06:27.213Z,97095.75
2019-05-09T23:08:56.560Z,97099.41
2019-05-09T23:11:25.874Z,97102.89
2019-05-09T23:13:55.208Z,97104.68
2019-05-09T23:16:26.815Z,97106.63
2019-05-09T23:18:56.152Z,97112.03
2019-05-09T23:21:27.128Z,97112.37
2019-05-09T23:24:06.232Z,97116.98
2019-05-09T23:26:35.688Z,97121.23
2019-05-09T23:29:05.147Z,97112.29
2019-05-09T23:31:36.126Z,97116.17
2019-05-09T23:34:05.462Z,97114.24
2019-05-09T23:36:34.785Z,97112.19
2019-05-09T23:39:15.811Z,97122.22
2019-05-09T23:41:45.151Z,97124.06
2019-05-09T23:44:14.474Z,97116.72
2019-05-09T23:46:43.806Z,97120.64
2019-05-09T23:49:13.151Z,97120.18
2019-05-09T23:51:47.009Z,97119.16
2019-05-09T23:54:45.798Z,97121.45
2019-05-09T23:57:25.709Z,97118.80
